Phillips, Wisconsin
Current Conditions -  °F | °C
As of 9:15 AM on Monday 24 Nov 2014 (Local Time) from KPBH Reporting Station
Light Snow Light Snow  
Wind Chill: -4°   Ceiling: 600
Heat Index:   Visibility: 1.2mi
Dew Point:   Wind: 7mph
Humidity: 100%   Direction: 330°NNW
Pressure: 29.14"   Gusts: NA
Location:  45.69°N, 90.41°W
Report Text: KPBH 241515Z AUTO 33006KT 1 1/4SM -SN OVC006 00/00 A2914 RMK AO2 P0001 T00000000
Loading
Personal Weather Stations






























Interactive Weather Map New forecast layout! Learn more

10-Day Weather Forecast

Advertisements
Track Severe Weather on mobile